sensor_id;sensor_type;location;lat;lon;timestamp;P1;durP1;ratioP1;P2;durP2;ratioP2
23670;SDS011;12012;51.998;7.614;2023-09-08T00:00:49;8.23;;;6.18;;
23670;SDS011;12012;51.998;7.614;2023-09-08T00:03:14;6.53;;;5.53;;
23670;SDS011;12012;51.998;7.614;2023-09-08T00:05:40;7.10;;;5.70;;
23670;SDS011;12012;51.998;7.614;2023-09-08T00:08:06;6.75;;;5.38;;
23670;SDS011;12012;51.998;7.614;2023-09-08T00:10:31;6.82;;;5.63;;
23670;SDS011;12012;51.998;7.614;2023-09-08T00:12:57;9.43;;;5.63;;
23670;SDS011;12012;51.998;7.614;2023-09-08T00:15:22;6.68;;;5.95;;
23670;SDS011;12012;51.998;7.614;2023-09-08T00:17:48;6.82;;;6.20;;
23670;SDS011;12012;51.998;7.614;2023-09-08T00:20:14;8.00;;;6.25;;
23670;SDS011;12012;51.998;7.614;2023-09-08T00:22:40;6.63;;;5.88;;
23670;SDS011;12012;51.998;7.614;2023-09-08T00:25:05;6.00;;;5.40;;
23670;SDS011;12012;51.998;7.614;2023-09-08T00:27:31;8.43;;;6.10;;
23670;SDS011;12012;51.998;7.614;2023-09-08T00:29:57;6.38;;;5.75;;
23670;SDS011;12012;51.998;7.614;2023-09-08T00:32:23;7.57;;;5.90;;
23670;SDS011;12012;51.998;7.614;2023-09-08T00:34:48;6.75;;;6.05;;
23670;SDS011;12012;51.998;7.614;2023-09-08T00:37:14;6.70;;;6.10;;
23670;SDS011;12012;51.998;7.614;2023-09-08T00:39:40;8.23;;;7.25;;
23670;SDS011;12012;51.998;7.614;2023-09-08T00:42:05;7.13;;;6.38;;
23670;SDS011;12012;51.998;7.614;2023-09-08T00:44:34;6.95;;;6.00;;
23670;SDS011;12012;51.998;7.614;2023-09-08T00:46:59;9.35;;;6.22;;
23670;SDS011;12012;51.998;7.614;2023-09-08T00:49:25;7.07;;;6.32;;
23670;SDS011;12012;51.998;7.614;2023-09-08T00:51:51;9.25;;;6.45;;
23670;SDS011;12012;51.998;7.614;2023-09-08T00:54:17;8.07;;;6.68;;
23670;SDS011;12012;51.998;7.614;2023-09-08T00:56:43;8.13;;;6.40;;
23670;SDS011;12012;51.998;7.614;2023-09-08T00:59:10;7.60;;;6.47;;
23670;SDS011;12012;51.998;7.614;2023-09-08T01:01:36;6.93;;;6.22;;
23670;SDS011;12012;51.998;7.614;2023-09-08T01:04:02;6.93;;;6.20;;
23670;SDS011;12012;51.998;7.614;2023-09-08T01:06:27;6.93;;;6.00;;
23670;SDS011;12012;51.998;7.614;2023-09-08T01:08:54;9.85;;;7.30;;
23670;SDS011;12012;51.998;7.614;2023-09-08T01:11:20;6.93;;;5.65;;
23670;SDS011;12012;51.998;7.614;2023-09-08T01:13:47;7.13;;;6.28;;
23670;SDS011;12012;51.998;7.614;2023-09-08T01:16:12;7.45;;;6.60;;
23670;SDS011;12012;51.998;7.614;2023-09-08T01:18:38;7.15;;;6.30;;
23670;SDS011;12012;51.998;7.614;2023-09-08T01:21:28;7.65;;;6.85;;
23670;SDS011;12012;51.998;7.614;2023-09-08T01:24:07;7.15;;;6.45;;
23670;SDS011;12012;51.998;7.614;2023-09-08T01:26:51;6.20;;;5.60;;
23670;SDS011;12012;51.998;7.614;2023-09-08T01:29:18;7.80;;;6.35;;
23670;SDS011;12012;51.998;7.614;2023-09-08T01:31:45;8.73;;;5.90;;
23670;SDS011;12012;51.998;7.614;2023-09-08T01:34:11;9.07;;;6.18;;
23670;SDS011;12012;51.998;7.614;2023-09-08T01:36:38;6.80;;;6.20;;
23670;SDS011;12012;51.998;7.614;2023-09-08T01:39:03;8.25;;;6.47;;
23670;SDS011;12012;51.998;7.614;2023-09-08T01:41:29;6.80;;;6.10;;
23670;SDS011;12012;51.998;7.614;2023-09-08T01:43:56;7.80;;;6.57;;
23670;SDS011;12012;51.998;7.614;2023-09-08T01:46:22;7.88;;;7.05;;
23670;SDS011;12012;51.998;7.614;2023-09-08T01:48:48;8.30;;;7.43;;
23670;SDS011;12012;51.998;7.614;2023-09-08T01:51:13;7.57;;;6.68;;
23670;SDS011;12012;51.998;7.614;2023-09-08T01:53:39;6.45;;;5.82;;
23670;SDS011;12012;51.998;7.614;2023-09-08T01:56:05;9.18;;;7.13;;
23670;SDS011;12012;51.998;7.614;2023-09-08T01:58:30;8.93;;;7.28;;
23670;SDS011;12012;51.998;7.614;2023-09-08T02:00:57;7.38;;;6.60;;
23670;SDS011;12012;51.998;7.614;2023-09-08T02:03:27;8.15;;;6.32;;
23670;SDS011;12012;51.998;7.614;2023-09-08T02:05:52;7.68;;;6.22;;
23670;SDS011;12012;51.998;7.614;2023-09-08T02:08:18;7.75;;;6.95;;
23670;SDS011;12012;51.998;7.614;2023-09-08T02:10:44;8.63;;;6.82;;
23670;SDS011;12012;51.998;7.614;2023-09-08T02:13:09;6.38;;;5.78;;
23670;SDS011;12012;51.998;7.614;2023-09-08T02:15:35;9.77;;;6.70;;
23670;SDS011;12012;51.998;7.614;2023-09-08T02:18:01;8.60;;;6.28;;
23670;SDS011;12012;51.998;7.614;2023-09-08T02:20:27;8.07;;;7.10;;
23670;SDS011;12012;51.998;7.614;2023-09-08T02:22:53;7.13;;;6.28;;
23670;SDS011;12012;51.998;7.614;2023-09-08T02:25:19;8.07;;;7.13;;
23670;SDS011;12012;51.998;7.614;2023-09-08T02:27:47;7.65;;;6.85;;
23670;SDS011;12012;51.998;7.614;2023-09-08T02:30:13;7.72;;;7.00;;
23670;SDS011;12012;51.998;7.614;2023-09-08T02:32:38;10.82;;;7.38;;
23670;SDS011;12012;51.998;7.614;2023-09-08T02:35:07;7.32;;;6.63;;
23670;SDS011;12012;51.998;7.614;2023-09-08T02:37:33;7.82;;;7.03;;
23670;SDS011;12012;51.998;7.614;2023-09-08T02:39:59;8.98;;;7.70;;
23670;SDS011;12012;51.998;7.614;2023-09-08T02:42:24;8.13;;;7.22;;
23670;SDS011;12012;51.998;7.614;2023-09-08T02:44:51;10.88;;;7.32;;
23670;SDS011;12012;51.998;7.614;2023-09-08T02:47:17;8.18;;;6.55;;
23670;SDS011;12012;51.998;7.614;2023-09-08T02:49:43;7.43;;;6.72;;
23670;SDS011;12012;51.998;7.614;2023-09-08T02:52:09;7.88;;;7.07;;
23670;SDS011;12012;51.998;7.614;2023-09-08T02:54:34;9.70;;;6.50;;
23670;SDS011;12012;51.998;7.614;2023-09-08T02:57:00;7.10;;;6.40;;
23670;SDS011;12012;51.998;7.614;2023-09-08T02:59:25;8.63;;;7.38;;
23670;SDS011;12012;51.998;7.614;2023-09-08T03:01:51;9.25;;;6.63;;
23670;SDS011;12012;51.998;7.614;2023-09-08T03:04:16;7.03;;;6.32;;
23670;SDS011;12012;51.998;7.614;2023-09-08T03:06:42;8.20;;;7.32;;
23670;SDS011;12012;51.998;7.614;2023-09-08T03:09:07;9.50;;;7.38;;
23670;SDS011;12012;51.998;7.614;2023-09-08T03:11:33;8.30;;;7.43;;
23670;SDS011;12012;51.998;7.614;2023-09-08T03:13:59;8.38;;;7.25;;
23670;SDS011;12012;51.998;7.614;2023-09-08T03:16:24;7.68;;;6.88;;
23670;SDS011;12012;51.998;7.614;2023-09-08T03:18:50;8.95;;;7.75;;
23670;SDS011;12012;51.998;7.614;2023-09-08T03:21:15;8.43;;;7.53;;
23670;SDS011;12012;51.998;7.614;2023-09-08T03:23:44;9.45;;;8.10;;
23670;SDS011;12012;51.998;7.614;2023-09-08T03:26:11;8.95;;;8.10;;
23670;SDS011;12012;51.998;7.614;2023-09-08T03:28:37;8.57;;;6.97;;
23670;SDS011;12012;51.998;7.614;2023-09-08T03:31:06;8.02;;;7.25;;
23670;SDS011;12012;51.998;7.614;2023-09-08T03:33:32;8.73;;;7.82;;
23670;SDS011;12012;51.998;7.614;2023-09-08T03:36:00;7.75;;;7.05;;
23670;SDS011;12012;51.998;7.614;2023-09-08T03:38:46;9.13;;;8.10;;
23670;SDS011;12012;51.998;7.614;2023-09-08T03:41:12;9.73;;;8.73;;
23670;SDS011;12012;51.998;7.614;2023-09-08T03:43:37;11.48;;;8.38;;
23670;SDS011;12012;51.998;7.614;2023-09-08T03:46:03;8.65;;;7.35;;
23670;SDS011;12012;51.998;7.614;2023-09-08T03:48:28;10.15;;;8.88;;
23670;SDS011;12012;51.998;7.614;2023-09-08T03:50:54;8.82;;;7.90;;
23670;SDS011;12012;51.998;7.614;2023-09-08T03:53:19;9.68;;;8.57;;
23670;SDS011;12012;51.998;7.614;2023-09-08T03:55:45;8.73;;;7.82;;
23670;SDS011;12012;51.998;7.614;2023-09-08T03:58:10;10.57;;;8.50;;
23670;SDS011;12012;51.998;7.614;2023-09-08T04:00:36;12.77;;;9.00;;
23670;SDS011;12012;51.998;7.614;2023-09-08T04:03:01;15.30;;;10.10;;
23670;SDS011;12012;51.998;7.614;2023-09-08T04:05:27;10.45;;;9.32;;
23670;SDS011;12012;51.998;7.614;2023-09-08T04:07:53;10.32;;;9.05;;
23670;SDS011;12012;51.998;7.614;2023-09-08T04:10:18;9.85;;;8.85;;
23670;SDS011;12012;51.998;7.614;2023-09-08T04:12:44;8.88;;;7.82;;
23670;SDS011;12012;51.998;7.614;2023-09-08T04:15:10;9.02;;;7.93;;
23670;SDS011;12012;51.998;7.614;2023-09-08T04:17:35;10.68;;;9.27;;
23670;SDS011;12012;51.998;7.614;2023-09-08T04:20:05;9.32;;;8.40;;
23670;SDS011;12012;51.998;7.614;2023-09-08T04:22:40;11.27;;;8.65;;
23670;SDS011;12012;51.998;7.614;2023-09-08T04:25:06;15.23;;;9.25;;
23670;SDS011;12012;51.998;7.614;2023-09-08T04:27:33;10.82;;;8.75;;
23670;SDS011;12012;51.998;7.614;2023-09-08T04:30:00;9.50;;;7.20;;
23670;SDS011;12012;51.998;7.614;2023-09-08T04:32:26;8.23;;;7.43;;
23670;SDS011;12012;51.998;7.614;2023-09-08T04:34:55;9.75;;;8.38;;
23670;SDS011;12012;51.998;7.614;2023-09-08T04:37:26;9.90;;;8.65;;
23670;SDS011;12012;51.998;7.614;2023-09-08T04:39:52;10.48;;;9.38;;
23670;SDS011;12012;51.998;7.614;2023-09-08T04:42:17;8.75;;;7.57;;
23670;SDS011;12012;51.998;7.614;2023-09-08T04:44:43;9.43;;;8.43;;
23670;SDS011;12012;51.998;7.614;2023-09-08T04:47:08;8.88;;;7.97;;
23670;SDS011;12012;51.998;7.614;2023-09-08T04:49:34;8.93;;;8.02;;
23670;SDS011;12012;51.998;7.614;2023-09-08T04:51:59;9.25;;;6.85;;
23670;SDS011;12012;51.998;7.614;2023-09-08T04:54:25;9.30;;;7.60;;
23670;SDS011;12012;51.998;7.614;2023-09-08T04:56:52;9.00;;;8.10;;
23670;SDS011;12012;51.998;7.614;2023-09-08T04:59:19;10.80;;;8.50;;
23670;SDS011;12012;51.998;7.614;2023-09-08T05:01:45;9.27;;;7.82;;
23670;SDS011;12012;51.998;7.614;2023-09-08T05:04:10;11.88;;;9.57;;
23670;SDS011;12012;51.998;7.614;2023-09-08T05:06:36;13.68;;;9.48;;
23670;SDS011;12012;51.998;7.614;2023-09-08T05:09:02;11.50;;;9.57;;
23670;SDS011;12012;51.998;7.614;2023-09-08T05:11:28;12.13;;;10.13;;
23670;SDS011;12012;51.998;7.614;2023-09-08T05:13:53;8.85;;;8.00;;
23670;SDS011;12012;51.998;7.614;2023-09-08T05:16:19;9.40;;;7.57;;
23670;SDS011;12012;51.998;7.614;2023-09-08T05:21:16;8.70;;;7.70;;
23670;SDS011;12012;51.998;7.614;2023-09-08T05:23:45;10.75;;;9.60;;
23670;SDS011;12012;51.998;7.614;2023-09-08T05:26:10;9.25;;;8.27;;
23670;SDS011;12012;51.998;7.614;2023-09-08T05:28:36;11.20;;;8.43;;
23670;SDS011;12012;51.998;7.614;2023-09-08T05:31:01;9.63;;;8.18;;
23670;SDS011;12012;51.998;7.614;2023-09-08T05:33:27;10.20;;;9.10;;
23670;SDS011;12012;51.998;7.614;2023-09-08T05:35:52;12.65;;;9.10;;
23670;SDS011;12012;51.998;7.614;2023-09-08T05:38:18;10.95;;;9.95;;
23670;SDS011;12012;51.998;7.614;2023-09-08T05:40:43;13.63;;;10.35;;
23670;SDS011;12012;51.998;7.614;2023-09-08T05:43:09;11.98;;;10.77;;
23670;SDS011;12012;51.998;7.614;2023-09-08T05:45:35;9.63;;;8.55;;
23670;SDS011;12012;51.998;7.614;2023-09-08T05:48:01;9.00;;;8.10;;
23670;SDS011;12012;51.998;7.614;2023-09-08T05:50:27;10.27;;;9.00;;
23670;SDS011;12012;51.998;7.614;2023-09-08T05:52:52;10.18;;;9.02;;
23670;SDS011;12012;51.998;7.614;2023-09-08T05:55:18;8.63;;;7.72;;
23670;SDS011;12012;51.998;7.614;2023-09-08T05:57:43;13.75;;;9.18;;
23670;SDS011;12012;51.998;7.614;2023-09-08T06:00:09;13.43;;;10.13;;
23670;SDS011;12012;51.998;7.614;2023-09-08T06:02:35;9.10;;;8.20;;
23670;SDS011;12012;51.998;7.614;2023-09-08T06:05:01;15.73;;;10.50;;
23670;SDS011;12012;51.998;7.614;2023-09-08T06:07:27;10.10;;;9.10;;
23670;SDS011;12012;51.998;7.614;2023-09-08T06:09:53;11.35;;;9.27;;
23670;SDS011;12012;51.998;7.614;2023-09-08T06:12:18;12.18;;;9.45;;
23670;SDS011;12012;51.998;7.614;2023-09-08T06:14:44;10.52;;;9.20;;
23670;SDS011;12012;51.998;7.614;2023-09-08T06:17:09;12.13;;;8.55;;
23670;SDS011;12012;51.998;7.614;2023-09-08T06:19:35;9.40;;;8.02;;
23670;SDS011;12012;51.998;7.614;2023-09-08T06:22:01;10.23;;;9.20;;
23670;SDS011;12012;51.998;7.614;2023-09-08T06:24:26;11.80;;;8.68;;
23670;SDS011;12012;51.998;7.614;2023-09-08T06:26:52;12.20;;;8.43;;
23670;SDS011;12012;51.998;7.614;2023-09-08T06:29:17;11.52;;;9.70;;
23670;SDS011;12012;51.998;7.614;2023-09-08T06:31:43;10.30;;;8.82;;
23670;SDS011;12012;51.998;7.614;2023-09-08T06:34:08;10.80;;;8.45;;
23670;SDS011;12012;51.998;7.614;2023-09-08T06:36:34;11.80;;;8.05;;
23670;SDS011;12012;51.998;7.614;2023-09-08T06:38:59;10.05;;;7.30;;
23670;SDS011;12012;51.998;7.614;2023-09-08T06:41:25;13.82;;;7.95;;
23670;SDS011;12012;51.998;7.614;2023-09-08T06:43:52;12.25;;;8.93;;
23670;SDS011;12012;51.998;7.614;2023-09-08T06:46:17;8.93;;;8.02;;
23670;SDS011;12012;51.998;7.614;2023-09-08T06:48:43;9.32;;;7.03;;
23670;SDS011;12012;51.998;7.614;2023-09-08T06:51:08;9.25;;;8.10;;
23670;SDS011;12012;51.998;7.614;2023-09-08T06:53:35;11.85;;;8.32;;
23670;SDS011;12012;51.998;7.614;2023-09-08T06:56:01;10.02;;;7.80;;
23670;SDS011;12012;51.998;7.614;2023-09-08T06:58:26;8.30;;;7.25;;
23670;SDS011;12012;51.998;7.614;2023-09-08T07:00:52;7.88;;;6.78;;
23670;SDS011;12012;51.998;7.614;2023-09-08T07:03:19;8.23;;;7.43;;
23670;SDS011;12012;51.998;7.614;2023-09-08T07:05:46;10.45;;;7.65;;
23670;SDS011;12012;51.998;7.614;2023-09-08T07:08:12;8.25;;;7.45;;
23670;SDS011;12012;51.998;7.614;2023-09-08T07:10:37;10.40;;;7.68;;
23670;SDS011;12012;51.998;7.614;2023-09-08T07:13:03;13.75;;;7.55;;
23670;SDS011;12012;51.998;7.614;2023-09-08T07:15:29;7.07;;;6.35;;
23670;SDS011;12012;51.998;7.614;2023-09-08T07:17:54;7.93;;;6.60;;
23670;SDS011;12012;51.998;7.614;2023-09-08T07:20:20;8.52;;;7.20;;
23670;SDS011;12012;51.998;7.614;2023-09-08T07:22:45;9.23;;;7.10;;
23670;SDS011;12012;51.998;7.614;2023-09-08T07:25:12;8.25;;;6.50;;
23670;SDS011;12012;51.998;7.614;2023-09-08T07:27:37;7.00;;;6.40;;
23670;SDS011;12012;51.998;7.614;2023-09-08T07:30:03;7.22;;;6.53;;
23670;SDS011;12012;51.998;7.614;2023-09-08T07:32:29;6.97;;;6.10;;
23670;SDS011;12012;51.998;7.614;2023-09-08T07:34:55;6.70;;;6.03;;
23670;SDS011;12012;51.998;7.614;2023-09-08T07:37:21;7.22;;;5.55;;
23670;SDS011;12012;51.998;7.614;2023-09-08T07:39:53;6.22;;;5.38;;
23670;SDS011;12012;51.998;7.614;2023-09-08T07:42:21;8.35;;;5.25;;
23670;SDS011;12012;51.998;7.614;2023-09-08T07:44:46;6.38;;;5.57;;
23670;SDS011;12012;51.998;7.614;2023-09-08T07:47:12;5.15;;;4.65;;
23670;SDS011;12012;51.998;7.614;2023-09-08T07:49:38;6.10;;;4.75;;
23670;SDS011;12012;51.998;7.614;2023-09-08T07:52:03;8.02;;;5.30;;
23670;SDS011;12012;51.998;7.614;2023-09-08T07:54:29;7.72;;;5.50;;
23670;SDS011;12012;51.998;7.614;2023-09-08T07:56:55;6.38;;;5.20;;
23670;SDS011;12012;51.998;7.614;2023-09-08T07:59:21;7.18;;;4.78;;
23670;SDS011;12012;51.998;7.614;2023-09-08T08:01:46;7.47;;;5.40;;
23670;SDS011;12012;51.998;7.614;2023-09-08T08:04:12;7.22;;;5.10;;
23670;SDS011;12012;51.998;7.614;2023-09-08T08:06:38;5.88;;;4.15;;
23670;SDS011;12012;51.998;7.614;2023-09-08T08:09:03;7.97;;;5.93;;
23670;SDS011;12012;51.998;7.614;2023-09-08T08:11:29;4.95;;;4.55;;
23670;SDS011;12012;51.998;7.614;2023-09-08T08:13:54;5.50;;;4.80;;
23670;SDS011;12012;51.998;7.614;2023-09-08T08:16:21;9.63;;;5.10;;
23670;SDS011;12012;51.998;7.614;2023-09-08T08:18:47;5.53;;;4.32;;
23670;SDS011;12012;51.998;7.614;2023-09-08T08:21:13;5.70;;;4.82;;
23670;SDS011;12012;51.998;7.614;2023-09-08T08:23:39;6.65;;;4.25;;
23670;SDS011;12012;51.998;7.614;2023-09-08T08:26:05;7.70;;;5.00;;
23670;SDS011;12012;51.998;7.614;2023-09-08T08:28:31;4.20;;;3.80;;
23670;SDS011;12012;51.998;7.614;2023-09-08T08:30:57;6.78;;;4.22;;
23670;SDS011;12012;51.998;7.614;2023-09-08T08:33:23;7.03;;;4.80;;
23670;SDS011;12012;51.998;7.614;2023-09-08T08:35:51;6.97;;;4.60;;
23670;SDS011;12012;51.998;7.614;2023-09-08T08:38:17;8.10;;;4.93;;
23670;SDS011;12012;51.998;7.614;2023-09-08T08:40:43;7.07;;;4.43;;
23670;SDS011;12012;51.998;7.614;2023-09-08T08:43:08;4.45;;;3.95;;
23670;SDS011;12012;51.998;7.614;2023-09-08T08:45:34;5.47;;;4.20;;
23670;SDS011;12012;51.998;7.614;2023-09-08T08:48:01;7.97;;;4.20;;
23670;SDS011;12012;51.998;7.614;2023-09-08T08:50:29;5.25;;;4.10;;
23670;SDS011;12012;51.998;7.614;2023-09-08T08:52:56;4.35;;;3.95;;
23670;SDS011;12012;51.998;7.614;2023-09-08T08:55:23;7.55;;;4.45;;
23670;SDS011;12012;51.998;7.614;2023-09-08T08:57:50;5.47;;;4.22;;
23670;SDS011;12012;51.998;7.614;2023-09-08T09:00:17;6.05;;;4.10;;
23670;SDS011;12012;51.998;7.614;2023-09-08T09:02:43;6.05;;;4.15;;
23670;SDS011;12012;51.998;7.614;2023-09-08T09:05:13;6.35;;;4.05;;
23670;SDS011;12012;51.998;7.614;2023-09-08T09:07:40;5.57;;;3.95;;
23670;SDS011;12012;51.998;7.614;2023-09-08T09:10:07;5.03;;;3.88;;
23670;SDS011;12012;51.998;7.614;2023-09-08T09:12:33;6.07;;;3.90;;
23670;SDS011;12012;51.998;7.614;2023-09-08T09:15:00;5.60;;;4.03;;
23670;SDS011;12012;51.998;7.614;2023-09-08T09:17:29;4.35;;;3.50;;
23670;SDS011;12012;51.998;7.614;2023-09-08T09:22:43;5.93;;;4.22;;
23670;SDS011;12012;51.998;7.614;2023-09-08T09:25:09;5.72;;;3.67;;
23670;SDS011;12012;51.998;7.614;2023-09-08T09:27:49;5.32;;;3.90;;
23670;SDS011;12012;51.998;7.614;2023-09-08T09:30:16;5.97;;;3.70;;
23670;SDS011;12012;51.998;7.614;2023-09-08T09:32:41;3.83;;;3.50;;
23670;SDS011;12012;51.998;7.614;2023-09-08T09:35:08;4.60;;;3.78;;
23670;SDS011;12012;51.998;7.614;2023-09-08T09:37:33;5.05;;;3.40;;
23670;SDS011;12012;51.998;7.614;2023-09-08T09:40:00;4.18;;;3.75;;
23670;SDS011;12012;51.998;7.614;2023-09-08T09:42:30;3.40;;;3.05;;
23670;SDS011;12012;51.998;7.614;2023-09-08T09:44:56;7.15;;;3.88;;
23670;SDS011;12012;51.998;7.614;2023-09-08T09:47:22;3.80;;;3.22;;
23670;SDS011;12012;51.998;7.614;2023-09-08T09:49:48;4.40;;;3.63;;
23670;SDS011;12012;51.998;7.614;2023-09-08T09:52:19;4.50;;;3.60;;
23670;SDS011;12012;51.998;7.614;2023-09-08T09:54:48;5.45;;;3.58;;
23670;SDS011;12012;51.998;7.614;2023-09-08T09:57:16;5.25;;;3.67;;
23670;SDS011;12012;51.998;7.614;2023-09-08T09:59:44;4.60;;;3.42;;
23670;SDS011;12012;51.998;7.614;2023-09-08T10:02:14;3.85;;;3.13;;
23670;SDS011;12012;51.998;7.614;2023-09-08T10:04:40;5.10;;;3.60;;
23670;SDS011;12012;51.998;7.614;2023-09-08T10:07:06;5.68;;;3.78;;
23670;SDS011;12012;51.998;7.614;2023-09-08T10:09:32;4.82;;;3.85;;
23670;SDS011;12012;51.998;7.614;2023-09-08T10:11:58;4.18;;;3.53;;
23670;SDS011;12012;51.998;7.614;2023-09-08T10:14:28;4.90;;;3.55;;
23670;SDS011;12012;51.998;7.614;2023-09-08T10:16:56;3.60;;;3.30;;
23670;SDS011;12012;51.998;7.614;2023-09-08T10:19:24;5.75;;;3.83;;
23670;SDS011;12012;51.998;7.614;2023-09-08T10:21:51;3.83;;;3.45;;
23670;SDS011;12012;51.998;7.614;2023-09-08T10:24:29;5.00;;;3.47;;
23670;SDS011;12012;51.998;7.614;2023-09-08T10:27:09;4.93;;;3.13;;
23670;SDS011;12012;51.998;7.614;2023-09-08T10:29:36;5.03;;;3.40;;
23670;SDS011;12012;51.998;7.614;2023-09-08T10:32:02;3.88;;;3.22;;
23670;SDS011;12012;51.998;7.614;2023-09-08T10:34:29;5.35;;;3.25;;
23670;SDS011;12012;51.998;7.614;2023-09-08T10:36:57;3.42;;;3.13;;
23670;SDS011;12012;51.998;7.614;2023-09-08T10:47:19;3.33;;;3.03;;
23670;SDS011;12012;51.998;7.614;2023-09-08T10:49:56;3.20;;;2.90;;
23670;SDS011;12012;51.998;7.614;2023-09-08T10:52:23;5.35;;;3.38;;
23670;SDS011;12012;51.998;7.614;2023-09-08T10:54:50;4.15;;;3.40;;
23670;SDS011;12012;51.998;7.614;2023-09-08T10:57:18;4.47;;;3.47;;
23670;SDS011;12012;51.998;7.614;2023-09-08T11:05:12;3.13;;;2.92;;
23670;SDS011;12012;51.998;7.614;2023-09-08T11:07:40;4.22;;;2.90;;
23670;SDS011;12012;51.998;7.614;2023-09-08T11:10:09;3.80;;;3.00;;
23670;SDS011;12012;51.998;7.614;2023-09-08T11:12:36;3.70;;;3.40;;
23670;SDS011;12012;51.998;7.614;2023-09-08T11:15:02;3.20;;;2.90;;
23670;SDS011;12012;51.998;7.614;2023-09-08T11:17:33;6.20;;;3.00;;
23670;SDS011;12012;51.998;7.614;2023-09-08T11:20:00;4.43;;;3.00;;
23670;SDS011;12012;51.998;7.614;2023-09-08T11:22:37;3.78;;;3.00;;
23670;SDS011;12012;51.998;7.614;2023-09-08T11:25:05;3.65;;;3.15;;
23670;SDS011;12012;51.998;7.614;2023-09-08T11:27:33;3.70;;;3.40;;
23670;SDS011;12012;51.998;7.614;2023-09-08T11:29:59;3.58;;;3.35;;
23670;SDS011;12012;51.998;7.614;2023-09-08T11:32:25;4.07;;;3.70;;
23670;SDS011;12012;51.998;7.614;2023-09-08T11:35:00;5.75;;;3.38;;
23670;SDS011;12012;51.998;7.614;2023-09-08T11:37:31;5.03;;;3.30;;
23670;SDS011;12012;51.998;7.614;2023-09-08T11:39:59;3.60;;;3.30;;
23670;SDS011;12012;51.998;7.614;2023-09-08T11:42:24;4.43;;;3.60;;
23670;SDS011;12012;51.998;7.614;2023-09-08T11:44:52;4.93;;;3.40;;
23670;SDS011;12012;51.998;7.614;2023-09-08T11:47:18;5.15;;;3.05;;
23670;SDS011;12012;51.998;7.614;2023-09-08T11:49:44;4.43;;;3.08;;
23670;SDS011;12012;51.998;7.614;2023-09-08T11:52:11;3.40;;;3.10;;
23670;SDS011;12012;51.998;7.614;2023-09-08T11:54:36;5.50;;;3.00;;
23670;SDS011;12012;51.998;7.614;2023-09-08T11:57:06;3.55;;;3.25;;
23670;SDS011;12012;51.998;7.614;2023-09-08T11:59:34;5.90;;;2.90;;
23670;SDS011;12012;51.998;7.614;2023-09-08T12:02:00;3.67;;;3.30;;
23670;SDS011;12012;51.998;7.614;2023-09-08T12:04:26;6.07;;;3.05;;
23670;SDS011;12012;51.998;7.614;2023-09-08T12:06:52;3.47;;;3.17;;
23670;SDS011;12012;51.998;7.614;2023-09-08T12:09:21;3.33;;;3.00;;
23670;SDS011;12012;51.998;7.614;2023-09-08T12:11:47;3.85;;;3.38;;
23670;SDS011;12012;51.998;7.614;2023-09-08T12:14:13;4.28;;;3.17;;
23670;SDS011;12012;51.998;7.614;2023-09-08T12:16:43;5.00;;;3.58;;
23670;SDS011;12012;51.998;7.614;2023-09-08T12:19:08;3.20;;;2.88;;
23670;SDS011;12012;51.998;7.614;2023-09-08T12:22:00;4.07;;;3.65;;
23670;SDS011;12012;51.998;7.614;2023-09-08T12:25:13;4.70;;;3.28;;
23670;SDS011;12012;51.998;7.614;2023-09-08T12:27:16;3.65;;;3.10;;
23670;SDS011;12012;51.998;7.614;2023-09-08T12:32:17;3.30;;;2.92;;
23670;SDS011;12012;51.998;7.614;2023-09-08T12:34:43;6.20;;;3.75;;
23670;SDS011;12012;51.998;7.614;2023-09-08T12:37:09;4.40;;;3.35;;
23670;SDS011;12012;51.998;7.614;2023-09-08T12:39:36;5.72;;;3.10;;
23670;SDS011;12012;51.998;7.614;2023-09-08T12:42:03;4.03;;;3.13;;
23670;SDS011;12012;51.998;7.614;2023-09-08T12:44:29;4.03;;;3.10;;
23670;SDS011;12012;51.998;7.614;2023-09-08T12:46:54;4.55;;;3.17;;
23670;SDS011;12012;51.998;7.614;2023-09-08T12:49:20;4.35;;;3.00;;
23670;SDS011;12012;51.998;7.614;2023-09-08T12:51:45;3.65;;;3.35;;
23670;SDS011;12012;51.998;7.614;2023-09-08T12:54:11;3.55;;;2.80;;
23670;SDS011;12012;51.998;7.614;2023-09-08T12:56:37;3.83;;;3.38;;
23670;SDS011;12012;51.998;7.614;2023-09-08T12:59:02;6.35;;;3.15;;
23670;SDS011;12012;51.998;7.614;2023-09-08T13:01:28;3.53;;;2.90;;
23670;SDS011;12012;51.998;7.614;2023-09-08T13:03:54;4.25;;;3.20;;
23670;SDS011;12012;51.998;7.614;2023-09-08T13:06:19;3.53;;;3.10;;
23670;SDS011;12012;51.998;7.614;2023-09-08T13:08:45;3.60;;;3.30;;
23670;SDS011;12012;51.998;7.614;2023-09-08T13:11:10;5.82;;;3.35;;
23670;SDS011;12012;51.998;7.614;2023-09-08T13:13:36;6.90;;;2.95;;
23670;SDS011;12012;51.998;7.614;2023-09-08T13:16:02;3.45;;;3.05;;
23670;SDS011;12012;51.998;7.614;2023-09-08T13:18:27;4.82;;;3.40;;
23670;SDS011;12012;51.998;7.614;2023-09-08T13:20:53;5.38;;;3.10;;
23670;SDS011;12012;51.998;7.614;2023-09-08T13:23:18;4.03;;;2.97;;
23670;SDS011;12012;51.998;7.614;2023-09-08T13:25:44;3.20;;;2.90;;
23670;SDS011;12012;51.998;7.614;2023-09-08T13:28:10;4.28;;;3.60;;
23670;SDS011;12012;51.998;7.614;2023-09-08T13:30:35;3.58;;;3.25;;
23670;SDS011;12012;51.998;7.614;2023-09-08T13:33:01;6.03;;;3.30;;
23670;SDS011;12012;51.998;7.614;2023-09-08T13:35:26;3.33;;;3.10;;
23670;SDS011;12012;51.998;7.614;2023-09-08T13:37:52;4.68;;;3.40;;
23670;SDS011;12012;51.998;7.614;2023-09-08T13:40:17;3.85;;;3.30;;
23670;SDS011;12012;51.998;7.614;2023-09-08T13:42:43;6.78;;;2.90;;
23670;SDS011;12012;51.998;7.614;2023-09-08T13:45:09;3.45;;;3.22;;
23670;SDS011;12012;51.998;7.614;2023-09-08T13:47:35;5.85;;;3.65;;
23670;SDS011;12012;51.998;7.614;2023-09-08T13:50:02;4.43;;;3.20;;
23670;SDS011;12012;51.998;7.614;2023-09-08T13:52:28;5.22;;;3.28;;
23670;SDS011;12012;51.998;7.614;2023-09-08T13:54:54;3.85;;;3.10;;
23670;SDS011;12012;51.998;7.614;2023-09-08T13:57:19;3.83;;;2.80;;
23670;SDS011;12012;51.998;7.614;2023-09-08T13:59:46;5.30;;;3.50;;
23670;SDS011;12012;51.998;7.614;2023-09-08T14:02:11;3.53;;;3.22;;
23670;SDS011;12012;51.998;7.614;2023-09-08T14:04:37;3.65;;;3.33;;
23670;SDS011;12012;51.998;7.614;2023-09-08T14:07:05;3.30;;;3.00;;
23670;SDS011;12012;51.998;7.614;2023-09-08T14:09:30;5.43;;;3.40;;
23670;SDS011;12012;51.998;7.614;2023-09-08T14:11:56;4.15;;;3.60;;
23670;SDS011;12012;51.998;7.614;2023-09-08T14:14:22;3.22;;;2.83;;
23670;SDS011;12012;51.998;7.614;2023-09-08T14:16:49;5.70;;;3.28;;
23670;SDS011;12012;51.998;7.614;2023-09-08T14:19:15;4.13;;;3.22;;
23670;SDS011;12012;51.998;7.614;2023-09-08T14:21:40;5.18;;;3.03;;
23670;SDS011;12012;51.998;7.614;2023-09-08T14:24:06;3.38;;;3.08;;
23670;SDS011;12012;51.998;7.614;2023-09-08T14:26:31;4.22;;;2.83;;
23670;SDS011;12012;51.998;7.614;2023-09-08T14:28:57;3.25;;;2.88;;
23670;SDS011;12012;51.998;7.614;2023-09-08T14:31:23;6.65;;;3.08;;
23670;SDS011;12012;51.998;7.614;2023-09-08T14:33:48;4.20;;;3.10;;
23670;SDS011;12012;51.998;7.614;2023-09-08T14:36:18;3.75;;;3.10;;
23670;SDS011;12012;51.998;7.614;2023-09-08T14:38:43;3.78;;;3.03;;
23670;SDS011;12012;51.998;7.614;2023-09-08T14:41:09;5.65;;;3.50;;
23670;SDS011;12012;51.998;7.614;2023-09-08T14:43:35;5.15;;;3.30;;
23670;SDS011;12012;51.998;7.614;2023-09-08T14:46:00;4.30;;;3.25;;
23670;SDS011;12012;51.998;7.614;2023-09-08T14:48:28;4.93;;;3.20;;
23670;SDS011;12012;51.998;7.614;2023-09-08T14:50:54;3.70;;;3.40;;
23670;SDS011;12012;51.998;7.614;2023-09-08T14:53:21;3.20;;;3.00;;
23670;SDS011;12012;51.998;7.614;2023-09-08T14:55:47;5.43;;;3.58;;
23670;SDS011;12012;51.998;7.614;2023-09-08T14:58:16;5.72;;;3.42;;
23670;SDS011;12012;51.998;7.614;2023-09-08T15:00:42;6.88;;;3.65;;
23670;SDS011;12012;51.998;7.614;2023-09-08T15:03:09;3.78;;;3.50;;